createdAt,value
2023-06-17T00:00:56.311Z,15.20
2023-06-17T00:03:23.198Z,15.20
2023-06-17T00:05:50.018Z,15.20
2023-06-17T00:08:16.810Z,15.20
2023-06-17T00:10:44.418Z,15.20
2023-06-17T00:13:11.261Z,15.20
2023-06-17T00:15:38.259Z,15.20
2023-06-17T00:18:08.707Z,15.10
2023-06-17T00:20:37.795Z,15.10
2023-06-17T00:23:07.179Z,15.10
2023-06-17T00:25:33.959Z,15.10
2023-06-17T00:28:01.214Z,15.10
2023-06-17T00:30:27.999Z,15.10
2023-06-17T00:32:55.118Z,15.10
2023-06-17T00:35:21.974Z,15.10
2023-06-17T00:37:48.759Z,15.10
2023-06-17T00:40:15.840Z,15.10
2023-06-17T00:42:42.674Z,15.10
2023-06-17T00:45:09.685Z,15.20
2023-06-17T00:47:36.667Z,15.20
2023-06-17T00:50:06.715Z,15.20
2023-06-17T00:52:41.725Z,15.20
2023-06-17T00:55:10.320Z,15.20
2023-06-17T00:57:38.814Z,15.20
2023-06-17T01:00:11.088Z,15.20
2023-06-17T01:02:41.872Z,15.10
2023-06-17T01:05:14.244Z,15.10
2023-06-17T01:08:06.474Z,15.20
2023-06-17T01:10:41.740Z,15.20
2023-06-17T01:13:08.531Z,15.10
2023-06-17T01:15:35.908Z,15.10
2023-06-17T01:18:06.391Z,15.10
2023-06-17T01:20:33.902Z,15.10
2023-06-17T01:23:01.184Z,15.00
2023-06-17T01:25:31.379Z,15.00
2023-06-17T01:28:02.040Z,15.00
2023-06-17T01:30:32.050Z,15.00
2023-06-17T01:32:59.669Z,15.00
2023-06-17T01:35:30.135Z,15.00
2023-06-17T01:38:07.266Z,15.00
2023-06-17T01:40:35.004Z,14.90
2023-06-17T01:43:01.826Z,14.90
2023-06-17T01:45:29.163Z,14.90
2023-06-17T01:47:58.607Z,15.00
2023-06-17T01:50:28.832Z,14.90
2023-06-17T01:52:55.957Z,14.90
2023-06-17T01:55:23.012Z,14.90
2023-06-17T01:57:49.826Z,14.80
2023-06-17T02:00:17.416Z,14.90
2023-06-17T02:02:44.327Z,14.80
2023-06-17T02:05:11.201Z,14.80
2023-06-17T02:07:39.240Z,14.80
2023-06-17T02:10:07.004Z,14.80
2023-06-17T02:12:34.002Z,14.80
2023-06-17T02:15:01.198Z,14.80
2023-06-17T02:17:32.386Z,14.80
2023-06-17T02:19:59.618Z,14.80
2023-06-17T02:22:26.669Z,14.80
2023-06-17T02:24:53.622Z,14.80
2023-06-17T02:27:20.516Z,14.80
2023-06-17T02:29:47.356Z,14.80
2023-06-17T02:32:14.160Z,14.80
2023-06-17T02:34:43.665Z,14.80
2023-06-17T02:37:11.303Z,14.80
2023-06-17T02:39:38.191Z,14.70
2023-06-17T02:42:05.396Z,14.70
2023-06-17T02:44:32.270Z,14.70
2023-06-17T02:46:59.176Z,14.70
2023-06-17T02:49:26.091Z,14.60
2023-06-17T02:51:52.965Z,14.60
2023-06-17T02:54:19.896Z,14.60
2023-06-17T02:56:46.708Z,14.60
2023-06-17T02:59:15.521Z,14.60
2023-06-17T03:01:44.577Z,14.60
2023-06-17T03:04:12.087Z,14.50
2023-06-17T03:06:42.117Z,14.60
2023-06-17T03:09:11.868Z,14.50
2023-06-17T03:11:38.759Z,14.50
2023-06-17T03:14:05.889Z,14.40
2023-06-17T03:16:34.979Z,14.40
2023-06-17T03:19:02.532Z,14.40
2023-06-17T03:21:30.787Z,14.30
2023-06-17T03:24:02.056Z,14.30
2023-06-17T03:26:29.116Z,14.30
2023-06-17T03:28:56.025Z,14.30
2023-06-17T03:31:23.050Z,14.30
2023-06-17T03:33:53.534Z,14.30
2023-06-17T03:36:25.780Z,14.30
2023-06-17T03:38:52.567Z,14.30
2023-06-17T03:41:19.377Z,14.20
2023-06-17T03:43:46.229Z,14.20
2023-06-17T03:46:13.141Z,14.20
2023-06-17T03:48:40.589Z,14.20
2023-06-17T03:51:07.564Z,14.20
2023-06-17T03:53:34.352Z,14.10
2023-06-17T03:56:02.192Z,14.10
2023-06-17T03:58:29.538Z,14.10
2023-06-17T04:00:57.418Z,14.10
2023-06-17T04:03:26.659Z,14.10
2023-06-17T04:05:53.744Z,14.00
2023-06-17T04:08:20.656Z,14.00
2023-06-17T04:10:49.122Z,14.00
2023-06-17T04:13:16.151Z,14.00
2023-06-17T04:15:43.685Z,14.00
2023-06-17T04:18:10.918Z,14.00
2023-06-17T04:20:37.870Z,14.00
2023-06-17T04:23:04.720Z,14.00
2023-06-17T04:25:33.603Z,14.00
2023-06-17T04:28:02.927Z,14.00
2023-06-17T04:30:29.777Z,14.00
2023-06-17T04:32:59.607Z,14.00
2023-06-17T04:35:29.179Z,14.00
2023-06-17T04:37:56.208Z,14.00
2023-06-17T04:40:23.998Z,14.00
2023-06-17T04:42:51.276Z,14.00
2023-06-17T04:45:18.549Z,14.00
2023-06-17T04:47:48.543Z,14.00
2023-06-17T04:50:18.233Z,14.00
2023-06-17T04:52:48.759Z,14.00
2023-06-17T04:55:15.715Z,14.00
2023-06-17T04:57:43.455Z,14.10
2023-06-17T05:00:13.974Z,14.40
2023-06-17T05:02:41.140Z,14.70
2023-06-17T05:05:08.588Z,15.10
2023-06-17T05:07:35.697Z,15.60
2023-06-17T05:10:03.072Z,16.00
2023-06-17T05:12:30.066Z,16.40
2023-06-17T05:14:56.920Z,16.80
2023-06-17T05:17:24.003Z,17.10
2023-06-17T05:19:51.105Z,17.30
2023-06-17T05:22:18.063Z,17.60
2023-06-17T05:24:44.949Z,17.90
2023-06-17T05:27:11.941Z,18.20
2023-06-17T05:29:40.371Z,18.50
2023-06-17T05:32:07.692Z,18.60
2023-06-17T05:34:34.783Z,18.70
2023-06-17T05:37:01.781Z,18.60
2023-06-17T05:39:28.662Z,18.70
2023-06-17T05:41:55.509Z,18.70
2023-06-17T05:44:22.871Z,19.00
2023-06-17T05:46:49.691Z,19.30
2023-06-17T05:49:16.986Z,19.60
2023-06-17T05:51:43.920Z,19.90
2023-06-17T05:54:10.784Z,20.10
2023-06-17T05:56:37.594Z,20.30
2023-06-17T05:59:04.380Z,20.50
2023-06-17T06:01:31.291Z,20.60
2023-06-17T06:03:58.202Z,20.60
2023-06-17T06:06:25.032Z,20.60
2023-06-17T06:08:54.913Z,20.50
2023-06-17T06:11:21.896Z,20.70
2023-06-17T06:13:48.821Z,20.60
2023-06-17T06:16:15.769Z,20.80
2023-06-17T06:18:42.620Z,20.90
2023-06-17T06:21:09.370Z,21.10
2023-06-17T06:23:37.172Z,21.10
2023-06-17T06:26:04.136Z,21.00
2023-06-17T06:28:31.134Z,21.00
2023-06-17T06:30:58.007Z,21.20
2023-06-17T06:33:24.921Z,21.20
2023-06-17T06:35:51.712Z,21.10
2023-06-17T06:38:18.652Z,21.20
2023-06-17T06:40:45.545Z,21.20
2023-06-17T06:43:12.353Z,21.30
2023-06-17T06:45:42.241Z,21.30
2023-06-17T06:48:09.231Z,21.40
2023-06-17T06:50:38.450Z,21.40
2023-06-17T06:53:05.535Z,21.40
2023-06-17T06:55:38.549Z,21.50
2023-06-17T06:58:10.121Z,21.50
2023-06-17T07:00:37.110Z,21.50
2023-06-17T07:03:04.058Z,21.50
2023-06-17T07:05:31.101Z,21.50
2023-06-17T07:08:00.441Z,21.50
2023-06-17T07:10:29.605Z,21.60
2023-06-17T07:12:57.276Z,21.70
2023-06-17T07:15:24.126Z,21.80
2023-06-17T07:17:53.770Z,21.80
2023-06-17T07:20:21.070Z,21.90
2023-06-17T07:22:48.258Z,22.10
2023-06-17T07:25:15.104Z,22.10
2023-06-17T07:27:41.956Z,22.10
2023-06-17T07:30:09.946Z,22.20
2023-06-17T07:32:39.347Z,22.30
2023-06-17T07:35:08.826Z,22.30
2023-06-17T07:37:35.912Z,22.20
2023-06-17T07:40:02.998Z,22.30
2023-06-17T07:42:30.117Z,22.20
2023-06-17T07:44:56.982Z,22.30
2023-06-17T07:47:24.487Z,22.30
2023-06-17T07:49:51.636Z,22.40
2023-06-17T07:52:18.490Z,22.50
2023-06-17T07:54:46.148Z,22.70
2023-06-17T07:57:16.409Z,22.70
2023-06-17T07:59:43.616Z,22.70
2023-06-17T08:02:10.845Z,22.80
2023-06-17T08:04:38.875Z,22.90
2023-06-17T08:07:05.942Z,22.70
2023-06-17T08:09:32.909Z,22.70
2023-06-17T08:12:02.987Z,22.60
2023-06-17T08:14:29.786Z,22.50
2023-06-17T08:16:57.100Z,22.40
2023-06-17T08:19:24.154Z,22.50
2023-06-17T08:21:51.269Z,22.60
2023-06-17T08:24:27.527Z,22.50
2023-06-17T08:26:57.641Z,22.50
2023-06-17T08:29:24.420Z,22.50
2023-06-17T08:31:52.271Z,22.40
2023-06-17T08:34:19.883Z,22.30
2023-06-17T08:36:50.743Z,22.30
2023-06-17T08:39:20.906Z,22.20
2023-06-17T08:41:47.940Z,22.20
2023-06-17T08:44:14.878Z,22.20
2023-06-17T08:46:43.920Z,22.20
2023-06-17T08:49:11.581Z,22.40
2023-06-17T08:51:38.446Z,22.40
2023-06-17T08:54:05.373Z,22.40
2023-06-17T08:56:32.325Z,22.60
2023-06-17T08:58:59.219Z,22.70
2023-06-17T09:01:26.703Z,22.80
2023-06-17T09:03:54.392Z,22.90
2023-06-17T09:06:25.629Z,22.90
2023-06-17T09:08:52.904Z,23.00
2023-06-17T09:11:29.285Z,22.90
2023-06-17T09:14:00.730Z,22.90
2023-06-17T09:16:38.011Z,22.80
2023-06-17T09:19:10.264Z,22.60
2023-06-17T09:21:37.962Z,22.50
2023-06-17T09:24:06.339Z,22.40
2023-06-17T09:26:34.719Z,22.50
2023-06-17T09:29:08.389Z,22.50
2023-06-17T09:31:50.499Z,22.60
2023-06-17T09:34:17.689Z,22.70
2023-06-17T09:36:45.031Z,22.70
2023-06-17T09:39:13.234Z,22.70
2023-06-17T09:41:46.276Z,22.60
2023-06-17T09:44:13.673Z,22.60
2023-06-17T09:46:47.769Z,22.70
2023-06-17T09:49:17.607Z,22.90
2023-06-17T09:51:45.158Z,23.00
2023-06-17T09:54:12.013Z,23.00
2023-06-17T09:56:39.197Z,23.20
2023-06-17T09:59:08.803Z,23.30
2023-06-17T10:01:40.744Z,23.40
2023-06-17T10:04:10.855Z,23.50
2023-06-17T10:06:38.868Z,23.50
2023-06-17T10:09:07.364Z,23.70
2023-06-17T10:11:35.578Z,23.70
2023-06-17T10:14:32.291Z,23.60
2023-06-17T10:16:59.126Z,23.50
2023-06-17T10:19:28.105Z,23.30
2023-06-17T10:21:55.836Z,23.30
2023-06-17T10:24:22.715Z,23.30
2023-06-17T10:26:53.538Z,23.40
2023-06-17T10:29:21.841Z,23.50
2023-06-17T10:31:48.833Z,23.50
2023-06-17T10:34:17.111Z,23.50
2023-06-17T10:36:48.168Z,23.50
2023-06-17T10:39:15.054Z,23.30
2023-06-17T10:41:42.030Z,23.30
2023-06-17T10:44:37.007Z,23.30
2023-06-17T10:47:04.374Z,23.20
2023-06-17T10:49:39.610Z,23.20
2023-06-17T10:52:06.844Z,23.10
2023-06-17T10:54:34.367Z,23.00
2023-06-17T10:57:01.758Z,22.90
2023-06-17T10:59:30.501Z,23.00
2023-06-17T11:02:02.507Z,23.10
2023-06-17T11:04:33.426Z,23.20
2023-06-17T11:07:00.974Z,23.30
2023-06-17T11:09:28.343Z,23.30
2023-06-17T11:11:55.942Z,23.30
2023-06-17T11:14:23.341Z,23.20
2023-06-17T11:16:53.559Z,23.10
2023-06-17T11:19:20.444Z,23.00
2023-06-17T11:21:52.014Z,22.90
2023-06-17T11:24:19.088Z,22.90
2023-06-17T11:26:45.896Z,22.90
2023-06-17T11:29:12.673Z,23.00
2023-06-17T11:31:41.552Z,23.10
2023-06-17T11:34:10.192Z,23.10
2023-06-17T11:36:37.157Z,23.10
2023-06-17T11:39:04.130Z,23.00
2023-06-17T11:41:31.309Z,22.70
2023-06-17T11:43:58.094Z,22.60
2023-06-17T11:46:25.922Z,22.70
2023-06-17T11:48:53.062Z,22.70
2023-06-17T11:51:20.041Z,22.80
2023-06-17T11:53:48.560Z,22.80
2023-06-17T11:56:23.326Z,22.90
2023-06-17T11:58:52.233Z,23.00
2023-06-17T12:01:24.666Z,23.00
2023-06-17T12:03:51.763Z,23.10
2023-06-17T12:06:24.630Z,23.10
2023-06-17T12:09:03.913Z,23.10
2023-06-17T12:11:32.800Z,23.20
2023-06-17T12:14:00.069Z,23.40
2023-06-17T12:16:31.926Z,23.50
2023-06-17T12:18:59.522Z,23.50
2023-06-17T12:21:26.378Z,23.70
2023-06-17T12:23:54.889Z,23.80
2023-06-17T12:26:22.023Z,23.90
2023-06-17T12:28:48.941Z,24.00
2023-06-17T12:31:16.089Z,24.10
2023-06-17T12:33:43.300Z,24.20
2023-06-17T12:36:10.073Z,24.30
2023-06-17T12:38:38.892Z,24.30
2023-06-17T12:41:05.699Z,24.30
2023-06-17T12:43:32.735Z,24.40
2023-06-17T12:46:00.343Z,24.40
2023-06-17T12:48:31.939Z,24.50
2023-06-17T12:50:59.011Z,24.60
2023-06-17T12:53:25.866Z,24.70
2023-06-17T12:55:52.690Z,24.70
2023-06-17T12:58:19.524Z,24.80
2023-06-17T13:00:46.578Z,24.90
2023-06-17T13:03:14.757Z,25.10
2023-06-17T13:05:43.491Z,25.10
2023-06-17T13:08:10.872Z,25.20
2023-06-17T13:10:38.177Z,25.20
2023-06-17T13:13:05.030Z,25.20
2023-06-17T13:15:31.889Z,25.30
2023-06-17T13:17:59.053Z,25.40
2023-06-17T13:20:26.780Z,25.50
2023-06-17T13:22:53.907Z,25.50
2023-06-17T13:25:21.348Z,25.40
2023-06-17T13:27:48.112Z,25.30
2023-06-17T13:30:15.597Z,25.40
2023-06-17T13:32:42.736Z,25.30
2023-06-17T13:35:10.011Z,25.30
2023-06-17T13:37:37.178Z,25.20
2023-06-17T13:40:04.533Z,25.20
2023-06-17T13:42:33.488Z,25.20
2023-06-17T13:45:00.477Z,25.20
2023-06-17T13:47:27.598Z,25.10
2023-06-17T13:49:54.622Z,25.20
2023-06-17T13:52:21.688Z,25.20
2023-06-17T13:54:48.535Z,25.30
2023-06-17T13:57:17.440Z,25.30
2023-06-17T13:59:44.416Z,25.30
2023-06-17T14:02:11.654Z,25.30
2023-06-17T14:04:38.554Z,25.30
2023-06-17T14:07:05.734Z,25.30
2023-06-17T14:09:32.880Z,25.40
2023-06-17T14:11:59.706Z,25.50
2023-06-17T14:14:26.519Z,25.50
2023-06-17T14:16:54.216Z,25.50
2023-06-17T14:19:21.006Z,25.60
2023-06-17T14:22:07.405Z,25.70
2023-06-17T14:24:37.610Z,25.70
2023-06-17T14:27:39.364Z,25.60
2023-06-17T14:30:11.438Z,25.60
2023-06-17T14:32:43.059Z,25.70
2023-06-17T14:35:10.942Z,25.60
2023-06-17T14:37:39.320Z,25.70
2023-06-17T14:40:06.908Z,25.70
2023-06-17T14:42:34.055Z,25.70
2023-06-17T14:45:00.795Z,25.70
2023-06-17T14:47:27.759Z,25.70
2023-06-17T14:49:54.855Z,25.60
2023-06-17T14:52:22.001Z,25.70
2023-06-17T14:54:48.874Z,25.70
2023-06-17T14:57:25.290Z,25.70
2023-06-17T14:59:52.837Z,25.80
2023-06-17T15:02:58.380Z,25.80
2023-06-17T15:05:27.820Z,25.90
2023-06-17T15:07:54.719Z,25.90
2023-06-17T15:10:21.728Z,25.90
2023-06-17T15:12:48.850Z,25.80
2023-06-17T15:15:20.329Z,25.80
2023-06-17T15:17:53.070Z,25.80
2023-06-17T15:20:21.147Z,26.00
2023-06-17T15:22:48.134Z,26.00
2023-06-17T15:25:15.005Z,26.20
2023-06-17T15:27:41.821Z,26.30
2023-06-17T15:30:11.864Z,26.30
2023-06-17T15:32:39.079Z,26.30
2023-06-17T15:35:06.855Z,26.10
2023-06-17T15:37:35.714Z,26.10
2023-06-17T15:40:04.987Z,26.10
2023-06-17T15:42:31.721Z,26.10
2023-06-17T15:44:58.576Z,26.00
2023-06-17T15:47:25.415Z,26.00
2023-06-17T15:49:52.208Z,26.00
2023-06-17T15:52:22.220Z,26.00
2023-06-17T15:54:49.011Z,26.00
2023-06-17T15:57:16.444Z,25.90
2023-06-17T15:59:43.226Z,25.90
2023-06-17T16:02:10.706Z,25.80
2023-06-17T16:04:41.508Z,25.80
2023-06-17T16:07:17.481Z,25.80
2023-06-17T16:09:45.626Z,25.80
2023-06-17T16:12:15.271Z,25.70
2023-06-17T16:14:44.962Z,25.60
2023-06-17T16:17:12.997Z,25.50
2023-06-17T16:19:40.040Z,25.60
2023-06-17T16:22:11.621Z,25.70
2023-06-17T16:24:42.150Z,25.60
2023-06-17T16:27:10.137Z,25.60
2023-06-17T16:29:37.297Z,25.50
2023-06-17T16:32:04.631Z,25.40
2023-06-17T16:34:31.452Z,25.40
2023-06-17T16:36:58.257Z,25.40
2023-06-17T16:39:25.121Z,25.50
2023-06-17T16:41:51.970Z,25.50
2023-06-17T16:44:22.300Z,25.50
2023-06-17T16:46:49.229Z,25.50
2023-06-17T16:49:16.081Z,25.50
2023-06-17T16:51:44.151Z,25.40
2023-06-17T16:54:11.620Z,25.40
2023-06-17T16:56:39.076Z,25.40
2023-06-17T16:59:06.011Z,25.30
2023-06-17T17:01:35.991Z,25.20
2023-06-17T17:04:09.002Z,25.10
2023-06-17T17:06:36.038Z,25.10
2023-06-17T17:09:02.902Z,25.20
2023-06-17T17:11:30.093Z,25.10
2023-06-17T17:13:57.129Z,25.10
2023-06-17T17:16:24.089Z,25.00
2023-06-17T17:18:50.971Z,25.00
2023-06-17T17:21:17.828Z,25.00
2023-06-17T17:23:45.586Z,24.90
2023-06-17T17:26:13.815Z,24.90
2023-06-17T17:28:41.543Z,24.80
2023-06-17T17:31:08.678Z,24.70
2023-06-17T17:33:35.868Z,24.70
2023-06-17T17:36:02.703Z,24.80
2023-06-17T17:38:29.532Z,24.70
2023-06-17T17:40:56.352Z,24.70
2023-06-17T17:43:23.292Z,24.60
2023-06-17T17:45:50.185Z,24.60
2023-06-17T17:48:17.192Z,24.60
2023-06-17T17:50:43.980Z,24.50
2023-06-17T17:53:12.393Z,24.40
2023-06-17T17:55:39.285Z,24.30
2023-06-17T17:58:06.298Z,24.20
2023-06-17T18:00:33.812Z,24.20
2023-06-17T18:03:06.904Z,24.20
2023-06-17T18:05:33.738Z,24.10
2023-06-17T18:08:00.584Z,24.00
2023-06-17T18:10:27.774Z,23.80
2023-06-17T18:12:54.549Z,23.80
2023-06-17T18:15:21.578Z,23.70
2023-06-17T18:17:48.449Z,23.50
2023-06-17T18:20:15.355Z,23.40
2023-06-17T18:22:42.377Z,23.10
2023-06-17T18:25:09.628Z,23.00
2023-06-17T18:27:37.132Z,22.90
2023-06-17T18:30:07.561Z,22.80
2023-06-17T18:32:34.362Z,22.70
2023-06-17T18:35:01.339Z,22.80
2023-06-17T18:37:28.484Z,22.80
2023-06-17T18:39:55.358Z,22.70
2023-06-17T18:42:23.849Z,22.60
2023-06-17T18:44:50.906Z,22.50
2023-06-17T18:47:17.747Z,22.50
2023-06-17T18:49:44.534Z,22.40
2023-06-17T18:52:11.351Z,22.30
2023-06-17T18:54:38.280Z,22.10
2023-06-17T18:57:05.440Z,22.10
2023-06-17T18:59:32.241Z,22.00
2023-06-17T19:01:59.139Z,21.90
2023-06-17T19:04:25.967Z,21.90
2023-06-17T19:06:53.138Z,21.80
2023-06-17T19:09:20.440Z,21.70
2023-06-17T19:11:47.314Z,21.60
2023-06-17T19:14:14.243Z,21.50
2023-06-17T19:16:41.910Z,21.30
2023-06-17T19:19:08.754Z,21.30
2023-06-17T19:21:36.281Z,21.10
2023-06-17T19:24:03.230Z,20.90
2023-06-17T19:26:30.384Z,20.90
2023-06-17T19:28:57.259Z,20.80
2023-06-17T19:31:25.821Z,20.70
2023-06-17T19:33:56.351Z,20.70
2023-06-17T19:36:26.142Z,20.60
2023-06-17T19:38:54.097Z,20.50
2023-06-17T19:41:21.225Z,20.40
2023-06-17T19:43:54.293Z,20.30
2023-06-17T19:46:23.376Z,20.30
2023-06-17T19:48:53.324Z,20.20
2023-06-17T19:51:20.464Z,20.10
2023-06-17T19:53:47.357Z,20.10
2023-06-17T19:56:14.125Z,20.00
2023-06-17T19:58:45.605Z,19.90
2023-06-17T20:01:12.435Z,19.90
2023-06-17T20:03:39.336Z,19.80
2023-06-17T20:06:06.743Z,19.80
2023-06-17T20:08:33.605Z,19.70
2023-06-17T20:11:00.504Z,19.60
2023-06-17T20:13:27.322Z,19.60
2023-06-17T20:15:54.236Z,19.50
2023-06-17T20:18:21.139Z,19.40
2023-06-17T20:20:47.979Z,19.40
2023-06-17T20:23:14.829Z,19.30
2023-06-17T20:25:41.756Z,19.20
2023-06-17T20:28:09.527Z,19.10
2023-06-17T20:30:36.303Z,19.00
2023-06-17T20:33:03.250Z,18.90
2023-06-17T20:35:30.122Z,18.80
2023-06-17T20:37:59.787Z,18.80
2023-06-17T20:40:27.460Z,18.70
2023-06-17T20:42:54.478Z,18.60
2023-06-17T20:45:21.614Z,18.50
2023-06-17T20:47:48.551Z,18.40
2023-06-17T20:50:17.749Z,18.30
2023-06-17T20:52:44.569Z,18.20
2023-06-17T20:55:12.559Z,18.20
2023-06-17T20:57:43.318Z,18.20
2023-06-17T21:00:10.662Z,18.20
2023-06-17T21:02:38.172Z,18.10
2023-06-17T21:05:05.487Z,18.00
2023-06-17T21:07:34.605Z,17.80
2023-06-17T21:10:05.253Z,17.70
2023-06-17T21:12:32.807Z,17.60
2023-06-17T21:14:59.562Z,17.50
2023-06-17T21:17:26.444Z,17.50
2023-06-17T21:19:55.121Z,17.40
2023-06-17T21:22:22.028Z,17.40
2023-06-17T21:24:48.838Z,17.30
2023-06-17T21:27:16.392Z,17.30
2023-06-17T21:29:43.256Z,17.20
2023-06-17T21:32:12.877Z,17.20
2023-06-17T21:34:40.471Z,17.10
2023-06-17T21:37:07.313Z,17.10
2023-06-17T21:39:34.098Z,17.00
2023-06-17T21:42:00.878Z,17.00
2023-06-17T21:44:27.964Z,16.90
2023-06-17T21:46:54.787Z,16.80
2023-06-17T21:49:21.613Z,16.70
2023-06-17T21:51:51.429Z,16.70
2023-06-17T21:54:18.229Z,16.60
2023-06-17T21:56:45.034Z,16.60
2023-06-17T21:59:11.835Z,16.60
2023-06-17T22:01:38.978Z,16.60
2023-06-17T22:04:06.011Z,16.50
2023-06-17T22:06:32.921Z,16.40
2023-06-17T22:08:59.684Z,16.30
2023-06-17T22:11:26.569Z,16.30
2023-06-17T22:13:53.774Z,16.20
2023-06-17T22:16:20.879Z,16.20
2023-06-17T22:18:47.799Z,16.20
2023-06-17T22:21:14.609Z,16.20
2023-06-17T22:23:41.860Z,16.20
2023-06-17T22:26:08.810Z,16.20
2023-06-17T22:28:35.842Z,16.20
2023-06-17T22:31:02.665Z,16.10
2023-06-17T22:33:29.657Z,16.00
2023-06-17T22:35:56.996Z,16.00
2023-06-17T22:38:23.863Z,16.10
2023-06-17T22:40:50.818Z,16.10
2023-06-17T22:43:20.310Z,16.10
2023-06-17T22:45:47.735Z,16.00
2023-06-17T22:48:14.583Z,16.00
2023-06-17T22:50:41.845Z,15.90
2023-06-17T22:53:08.721Z,15.80
2023-06-17T22:55:37.079Z,15.80
2023-06-17T22:58:04.801Z,15.70
2023-06-17T23:00:31.723Z,15.60
2023-06-17T23:02:58.725Z,15.60
2023-06-17T23:05:25.703Z,15.50
2023-06-17T23:07:52.628Z,15.50
2023-06-17T23:10:19.667Z,15.60
2023-06-17T23:12:46.807Z,15.50
2023-06-17T23:15:13.654Z,15.30
2023-06-17T23:17:40.513Z,15.20
2023-06-17T23:20:08.069Z,15.20
2023-06-17T23:22:35.111Z,15.20
2023-06-17T23:25:06.196Z,15.10
2023-06-17T23:27:37.753Z,15.20
2023-06-17T23:30:05.007Z,15.20
2023-06-17T23:32:32.186Z,15.20
2023-06-17T23:35:00.501Z,15.20
2023-06-17T23:37:27.296Z,15.20
2023-06-17T23:39:54.320Z,15.10
2023-06-17T23:42:26.410Z,15.00
2023-06-17T23:44:53.333Z,15.00
2023-06-17T23:47:20.245Z,14.90
2023-06-17T23:49:47.190Z,14.90
2023-06-17T23:52:14.607Z,14.80
2023-06-17T23:54:41.476Z,14.70
2023-06-17T23:57:08.408Z,14.70
2023-06-17T23:59:35.303Z,14.70
